Time;durP1;ratioP1;P1;durP2;ratioP2;P2;SDS_P1;SDS_P2;PMS_P1;PMS_P2;Temp;Humidity;BMP_temperature;BMP_pressure;BME280_temperature;BME280_humidity;BME280_pressure;Samples;Min_cycle;Max_cycle;Signal;HPM_P1;HPM_P2
2023/06/21 00:01:31;;;;;;;9.23;3.90;;;19.70;99.90;;;;;;5019391;28;20029;-74
2023/06/21 00:04:00;;;;;;;7.82;4.20;;;19.70;99.90;;;;;;5018808;28;20478;-74
2023/06/21 00:06:28;;;;;;;9.90;4.25;;;19.70;99.90;;;;;;5005365;28;20050;-73
2023/06/21 00:08:55;;;;;;;8.73;4.20;;;19.70;99.90;;;;;;4999520;28;20065;-73
2023/06/21 00:11:21;;;;;;;10.20;5.07;;;19.60;99.90;;;;;;4999626;28;20035;-72
2023/06/21 00:13:46;;;;;;;9.18;4.45;;;19.70;99.90;;;;;;4999154;28;20022;-73
2023/06/21 00:16:14;;;;;;;7.32;4.50;;;19.70;99.90;;;;;;4999671;28;20030;-72
2023/06/21 00:18:39;;;;;;;7.13;4.05;;;19.60;99.90;;;;;;4999145;28;20109;-73
2023/06/21 00:21:05;;;;;;;6.95;4.72;;;19.60;99.90;;;;;;4999347;28;20057;-72
2023/06/21 00:23:31;;;;;;;9.32;4.93;;;19.60;99.90;;;;;;4999174;28;20027;-72
2023/06/21 00:25:57;;;;;;;10.43;4.50;;;19.50;99.90;;;;;;4981859;28;20028;-72
2023/06/21 00:28:22;;;;;;;8.15;4.32;;;19.50;99.90;;;;;;4998310;28;20509;-72
2023/06/21 00:30:48;;;;;;;8.52;4.70;;;19.50;99.90;;;;;;4999391;28;20026;-72
2023/06/21 00:33:14;;;;;;;7.38;4.30;;;19.50;99.90;;;;;;4999023;28;20019;-73
2023/06/21 00:35:39;;;;;;;9.40;4.55;;;19.50;99.90;;;;;;4999157;28;20030;-73
2023/06/21 00:38:05;;;;;;;7.82;4.80;;;19.50;99.90;;;;;;4998663;28;20510;-73
2023/06/21 00:40:31;;;;;;;8.10;4.53;;;19.40;99.90;;;;;;4981550;28;20062;-73
2023/06/21 00:42:57;;;;;;;8.32;4.88;;;19.40;99.90;;;;;;4998761;28;20049;-73
2023/06/21 00:45:22;;;;;;;9.45;5.03;;;19.40;99.90;;;;;;4998839;28;20030;-72
2023/06/21 00:47:49;;;;;;;7.97;4.97;;;19.50;99.90;;;;;;4998697;28;20076;-73
2023/06/21 00:50:16;;;;;;;7.50;4.70;;;19.30;99.90;;;;;;4998999;28;20076;-72
2023/06/21 00:52:43;;;;;;;9.35;4.40;;;19.30;99.90;;;;;;4998364;28;20022;-72
2023/06/21 00:55:09;;;;;;;8.98;5.25;;;19.40;99.90;;;;;;4998785;28;20514;-72
2023/06/21 00:57:36;;;;;;;8.73;5.30;;;19.40;99.90;;;;;;4998513;28;20033;-72
2023/06/21 01:00:02;;;;;;;8.13;5.15;;;19.30;99.90;;;;;;4998779;28;20022;-72
2023/06/21 01:02:31;;;;;;;9.60;5.20;;;19.30;99.90;;;;;;4981036;28;20053;-72
2023/06/21 01:04:57;;;;;;;10.02;5.43;;;19.30;99.90;;;;;;4997382;28;20387;-72
2023/06/21 01:07:32;;;;;;;8.60;4.95;;;19.30;99.90;;;;;;4977491;28;20080;-72
2023/06/21 01:10:26;;;;;;;8.27;5.03;;;19.30;99.90;;;;;;4993386;28;20023;-72
2023/06/21 01:13:01;;;;;;;7.13;4.32;;;19.30;99.90;;;;;;4998409;28;20086;-71
2023/06/21 01:15:32;;;;;;;7.38;4.43;;;19.30;99.90;;;;;;4997405;28;20026;-71
2023/06/21 01:18:00;;;;;;;10.65;4.93;;;19.30;99.90;;;;;;4998195;28;20034;-72
2023/06/21 01:20:33;;;;;;;9.77;5.10;;;19.20;99.90;;;;;;4980918;28;20027;-72
2023/06/21 01:23:27;;;;;;;8.48;5.68;;;19.20;99.90;;;;;;4998082;28;20049;-72
2023/06/21 01:25:57;;;;;;;9.75;4.80;;;19.20;99.90;;;;;;4998276;28;20034;-72
2023/06/21 01:29:04;;;;;;;8.23;5.00;;;19.20;99.90;;;;;;4997390;28;20050;-71
2023/06/21 01:31:31;;;;;;;10.23;5.07;;;19.20;99.90;;;;;;4972481;28;20041;-72
2023/06/21 01:33:59;;;;;;;7.05;4.65;;;19.20;99.90;;;;;;4998152;28;20018;-71
2023/06/21 01:36:25;;;;;;;7.53;4.72;;;19.20;99.90;;;;;;4997610;28;20119;-71
2023/06/21 01:39:00;;;;;;;8.55;5.55;;;19.30;99.90;;;;;;4998063;28;20026;-71
2023/06/21 01:41:26;;;;;;;12.55;5.57;;;19.20;99.90;;;;;;4997665;28;20030;-71
2023/06/21 01:43:53;;;;;;;8.48;5.32;;;19.30;99.90;;;;;;4997972;28;20030;-71
2023/06/21 01:46:21;;;;;;;9.13;5.28;;;19.30;99.90;;;;;;4997942;28;20030;-72
2023/06/21 01:48:48;;;;;;;9.68;5.78;;;19.40;99.90;;;;;;4997879;28;20022;-71
2023/06/21 01:51:16;;;;;;;12.10;5.60;;;19.40;99.90;;;;;;4997762;28;20023;-71
2023/06/21 01:53:43;;;;;;;9.32;6.00;;;19.40;99.90;;;;;;4997567;28;20022;-71
2023/06/21 01:56:14;;;;;;;8.38;5.85;;;19.40;99.90;;;;;;4997795;28;20064;-71
2023/06/21 01:58:41;;;;;;;10.90;5.78;;;19.50;99.90;;;;;;4996401;28;20023;-71
2023/06/21 02:01:08;;;;;;;10.55;5.78;;;19.40;99.90;;;;;;5004776;28;20080;-71
2023/06/21 02:03:34;;;;;;;8.65;5.50;;;19.50;99.90;;;;;;4982745;28;20041;-71
2023/06/21 02:06:04;;;;;;;7.10;5.32;;;19.40;99.90;;;;;;4986459;28;20042;-71
2023/06/21 02:08:32;;;;;;;8.98;5.55;;;19.50;99.90;;;;;;5015570;28;20029;-71
2023/06/21 02:11:00;;;;;;;13.48;5.75;;;19.50;99.90;;;;;;5017240;28;20022;-71
2023/06/21 02:13:27;;;;;;;12.95;5.93;;;19.50;99.90;;;;;;5017059;28;20042;-71
2023/06/21 02:15:54;;;;;;;7.28;5.25;;;19.40;99.90;;;;;;5017059;28;20761;-71
2023/06/21 02:18:23;;;;;;;6.80;5.28;;;19.50;99.90;;;;;;5017050;28;20101;-71
2023/06/21 02:20:49;;;;;;;11.32;5.35;;;19.50;99.90;;;;;;5017147;28;20026;-71
2023/06/21 02:23:15;;;;;;;7.38;5.03;;;19.50;99.90;;;;;;4999339;28;20371;-71
2023/06/21 02:25:41;;;;;;;8.07;5.35;;;19.50;99.90;;;;;;4999356;28;20025;-72
2023/06/21 02:28:07;;;;;;;12.55;5.85;;;19.50;99.90;;;;;;5016946;28;20104;-71
2023/06/21 02:30:32;;;;;;;10.90;5.25;;;19.50;99.90;;;;;;5017176;28;20014;-71
2023/06/21 02:32:58;;;;;;;8.73;5.60;;;19.50;99.90;;;;;;5016837;28;20036;-71
2023/06/21 02:35:24;;;;;;;10.57;5.47;;;19.50;99.90;;;;;;5016929;28;20398;-71
2023/06/21 02:37:50;;;;;;;8.27;5.60;;;19.60;99.90;;;;;;5016685;28;20034;-72
2023/06/21 02:40:16;;;;;;;10.82;6.10;;;19.60;99.90;;;;;;5016864;28;20105;-71
2023/06/21 02:42:41;;;;;;;10.43;5.75;;;19.60;99.90;;;;;;5016790;28;20057;-71
2023/06/21 02:45:11;;;;;;;11.00;6.07;;;19.60;99.90;;;;;;5016788;28;20030;-71
2023/06/21 02:47:37;;;;;;;8.15;6.25;;;19.60;99.90;;;;;;5016748;28;20112;-71
2023/06/21 02:50:04;;;;;;;10.45;7.05;;;19.70;99.90;;;;;;5016725;28;20157;-71
2023/06/21 02:52:30;;;;;;;14.57;8.85;;;19.70;99.90;;;;;;5016470;28;20045;-71
2023/06/21 02:54:57;;;;;;;14.98;8.77;;;19.70;99.90;;;;;;4995869;28;20894;-71
2023/06/21 02:57:23;;;;;;;11.77;7.95;;;19.70;99.90;;;;;;5013441;28;20025;-71
2023/06/21 02:59:49;;;;;;;15.48;7.93;;;19.70;99.90;;;;;;5016670;28;20469;-71
2023/06/21 03:02:16;;;;;;;15.68;8.98;;;19.70;99.90;;;;;;5016372;28;20159;-71
2023/06/21 03:04:43;;;;;;;14.27;8.90;;;19.70;99.90;;;;;;5005635;28;20033;-71
2023/06/21 03:07:09;;;;;;;14.30;8.65;;;19.70;99.90;;;;;;4996286;28;20042;-71
2023/06/21 03:09:34;;;;;;;16.63;9.95;;;19.60;99.90;;;;;;4996625;28;20053;-71
2023/06/21 03:12:07;;;;;;;14.57;8.57;;;19.70;99.90;;;;;;4996674;28;20042;-71
2023/06/21 03:14:37;;;;;;;16.75;10.93;;;19.70;99.90;;;;;;5004738;28;20029;-71
2023/06/21 03:17:04;;;;;;;14.45;9.70;;;19.70;99.90;;;;;;4996857;28;20032;-71
2023/06/21 03:19:30;;;;;;;16.25;10.57;;;19.60;99.90;;;;;;4996818;28;20487;-72
2023/06/21 03:21:56;;;;;;;16.13;10.45;;;19.70;99.90;;;;;;4996748;28;20096;-71
2023/06/21 03:24:21;;;;;;;16.73;10.85;;;19.70;99.90;;;;;;4996653;28;20049;-71
2023/06/21 03:26:47;;;;;;;18.98;11.15;;;19.70;99.90;;;;;;4996787;28;20030;-71
2023/06/21 03:29:13;;;;;;;15.10;10.55;;;19.60;99.90;;;;;;5000563;28;20033;-71
2023/06/21 03:31:38;;;;;;;13.98;10.43;;;19.60;99.90;;;;;;5000275;28;20018;-71
2023/06/21 03:34:04;;;;;;;16.10;9.23;;;19.60;99.90;;;;;;5000119;28;20034;-72
2023/06/21 03:36:30;;;;;;;13.07;9.43;;;19.60;99.90;;;;;;4999989;28;20046;-72
2023/06/21 03:38:55;;;;;;;16.27;9.35;;;19.60;99.90;;;;;;5000193;28;20030;-72
2023/06/21 03:41:21;;;;;;;18.17;8.50;;;19.60;99.90;;;;;;5000049;28;20030;-71
2023/06/21 03:43:46;;;;;;;21.63;11.07;;;19.60;99.90;;;;;;4999074;28;20022;-72
2023/06/21 03:46:12;;;;;;;20.25;9.23;;;19.60;99.90;;;;;;5000013;28;20364;-72
2023/06/21 03:48:38;;;;;;;12.35;8.95;;;19.60;99.90;;;;;;5000262;28;20052;-72
2023/06/21 03:51:03;;;;;;;17.48;8.38;;;19.60;99.90;;;;;;4999555;28;20038;-72
2023/06/21 03:53:29;;;;;;;14.98;9.30;;;19.60;99.90;;;;;;4982478;28;20041;-72
2023/06/21 03:55:55;;;;;;;16.15;8.45;;;19.60;99.90;;;;;;4999842;28;20020;-71
2023/06/21 03:58:20;;;;;;;16.02;9.23;;;19.50;99.90;;;;;;4999968;28;20037;-72
2023/06/21 04:00:46;;;;;;;9.95;7.93;;;19.50;99.90;;;;;;4999519;28;20427;-72
2023/06/21 04:03:12;;;;;;;12.80;7.93;;;19.50;99.90;;;;;;5000119;28;20026;-72
2023/06/21 04:05:37;;;;;;;11.93;9.10;;;19.50;99.90;;;;;;5003374;28;20052;-72
2023/06/21 04:08:03;;;;;;;15.38;8.15;;;19.50;99.90;;;;;;4999495;28;20113;-72
2023/06/21 04:10:29;;;;;;;14.43;7.68;;;19.50;99.90;;;;;;4981908;28;20083;-72
2023/06/21 04:12:54;;;;;;;12.77;7.82;;;19.50;99.90;;;;;;4999584;28;20427;-72
2023/06/21 04:15:21;;;;;;;12.48;7.90;;;19.50;99.90;;;;;;5003507;28;20502;-73
2023/06/21 04:17:49;;;;;;;16.02;8.70;;;19.50;99.90;;;;;;4999772;28;20149;-72
2023/06/21 04:20:15;;;;;;;13.07;9.10;;;19.40;99.90;;;;;;4994209;28;20030;-73
2023/06/21 04:22:42;;;;;;;10.80;7.88;;;19.50;99.90;;;;;;4999103;28;20030;-72
2023/06/21 04:25:09;;;;;;;15.48;8.07;;;19.40;99.90;;;;;;4999070;28;20546;-72
2023/06/21 04:27:34;;;;;;;14.45;7.88;;;19.40;99.90;;;;;;4983991;28;20027;-72
2023/06/21 04:30:00;;;;;;;12.95;8.15;;;19.40;99.90;;;;;;5010461;28;20029;-72
2023/06/21 04:32:32;;;;;;;17.02;10.05;;;19.40;99.90;;;;;;4999160;28;20160;-73
2023/06/21 04:34:59;;;;;;;12.85;8.05;;;19.40;99.90;;;;;;4999089;28;20053;-72
2023/06/21 04:37:25;;;;;;;12.25;7.22;;;19.40;99.90;;;;;;4999007;28;20442;-72
2023/06/21 04:39:52;;;;;;;11.77;7.63;;;19.50;99.90;;;;;;4996729;28;20038;-72
2023/06/21 04:42:20;;;;;;;16.98;8.50;;;19.40;99.90;;;;;;4997760;28;20038;-72
2023/06/21 04:44:48;;;;;;;11.25;8.10;;;19.50;99.90;;;;;;4998681;28;20037;-72
2023/06/21 04:47:15;;;;;;;15.90;8.32;;;19.40;99.90;;;;;;4998970;28;20105;-72
2023/06/21 04:49:41;;;;;;;14.70;8.98;;;19.50;99.90;;;;;;4981395;28;20051;-73
2023/06/21 04:52:07;;;;;;;13.32;7.82;;;19.50;99.90;;;;;;4998760;28;20027;-72
2023/06/21 04:54:33;;;;;;;12.20;7.55;;;19.50;99.90;;;;;;4998696;28;20080;-72
2023/06/21 04:56:58;;;;;;;16.15;8.52;;;19.50;99.90;;;;;;4998603;28;20030;-72
2023/06/21 04:59:24;;;;;;;17.60;8.65;;;19.60;99.90;;;;;;4998687;28;20040;-72
2023/06/21 05:01:50;;;;;;;12.55;7.38;;;19.50;99.90;;;;;;4998789;28;20094;-72
2023/06/21 05:04:15;;;;;;;14.27;7.50;;;19.50;99.90;;;;;;5002700;28;20033;-73
2023/06/21 05:06:41;;;;;;;14.15;8.50;;;19.60;99.90;;;;;;4996400;28;20060;-72
2023/06/21 05:09:08;;;;;;;12.35;7.68;;;19.60;99.90;;;;;;5018094;28;20014;-72
2023/06/21 05:11:36;;;;;;;9.95;6.82;;;19.70;99.90;;;;;;5017686;28;20026;-72
2023/06/21 05:14:02;;;;;;;12.00;7.15;;;19.60;99.90;;;;;;5018082;28;20022;-72
2023/06/21 05:16:27;;;;;;;13.23;8.05;;;19.70;99.90;;;;;;5017832;28;20453;-72
2023/06/21 05:18:53;;;;;;;12.18;7.55;;;19.70;99.90;;;;;;5024678;28;20128;-72
2023/06/21 05:21:19;;;;;;;13.70;8.02;;;19.70;99.90;;;;;;5020278;28;20470;-72
2023/06/21 05:23:44;;;;;;;13.88;7.72;;;19.70;99.90;;;;;;4997658;28;20046;-72
2023/06/21 05:26:10;;;;;;;16.48;7.60;;;19.70;99.90;;;;;;5015352;28;20030;-72
2023/06/21 05:28:36;;;;;;;12.70;7.60;;;19.70;99.90;;;;;;4998043;28;20121;-72
2023/06/21 05:31:01;;;;;;;13.90;7.90;;;19.70;99.90;;;;;;5015656;28;20474;-73
2023/06/21 05:33:27;;;;;;;12.52;7.70;;;19.70;99.90;;;;;;5016032;28;20082;-72
2023/06/21 05:35:52;;;;;;;10.05;6.50;;;19.70;99.90;;;;;;5017098;28;20041;-72
2023/06/21 05:38:18;;;;;;;13.52;7.70;;;19.70;99.90;;;;;;4998971;28;20057;-72
2023/06/21 05:40:44;;;;;;;11.43;7.35;;;19.70;99.90;;;;;;5017413;28;20445;-72
2023/06/21 05:43:09;;;;;;;23.92;7.47;;;19.70;99.90;;;;;;5017724;28;20406;-72
2023/06/21 05:45:38;;;;;;;10.85;7.60;;;19.70;99.90;;;;;;5017277;28;20034;-72
2023/06/21 05:48:04;;;;;;;9.20;6.45;;;19.70;99.90;;;;;;5017570;28;20032;-72
2023/06/21 05:50:30;;;;;;;13.40;6.95;;;19.70;99.90;;;;;;5016837;28;20108;-72
2023/06/21 05:52:59;;;;;;;10.32;7.05;;;19.80;99.90;;;;;;4996011;28;20018;-72
2023/06/21 05:55:25;;;;;;;13.75;6.78;;;19.80;99.90;;;;;;5010794;28;20029;-73
2023/06/21 05:57:51;;;;;;;17.33;7.28;;;19.80;99.90;;;;;;5017170;28;20032;-72
2023/06/21 06:00:17;;;;;;;13.95;6.07;;;19.80;99.90;;;;;;4999749;28;20030;-72
2023/06/21 06:02:45;;;;;;;19.38;7.22;;;19.80;99.90;;;;;;5006889;28;20029;-72
2023/06/21 06:05:11;;;;;;;12.52;7.28;;;19.80;99.90;;;;;;5014079;28;20065;-72
2023/06/21 06:07:37;;;;;;;12.32;6.90;;;19.80;99.90;;;;;;4993696;28;20026;-72
2023/06/21 06:10:04;;;;;;;12.48;6.55;;;19.80;99.90;;;;;;4994873;28;20433;-72
2023/06/21 06:12:30;;;;;;;10.05;7.10;;;19.80;99.90;;;;;;4997528;28;20471;-73
2023/06/21 06:14:56;;;;;;;13.07;8.10;;;19.80;99.90;;;;;;4978106;28;20057;-73
2023/06/21 06:17:21;;;;;;;12.43;6.82;;;19.90;99.90;;;;;;4999508;28;20486;-72
2023/06/21 06:19:47;;;;;;;14.02;7.88;;;19.90;99.90;;;;;;4978175;28;20078;-72
2023/06/21 06:22:13;;;;;;;15.35;8.50;;;19.90;99.90;;;;;;4999852;28;20085;-72
2023/06/21 06:24:38;;;;;;;14.60;7.45;;;20.00;99.90;;;;;;4998343;28;20029;-73
2023/06/21 06:27:05;;;;;;;16.02;8.95;;;20.00;99.90;;;;;;4980279;28;20022;-72
2023/06/21 06:29:30;;;;;;;14.15;9.13;;;20.00;99.90;;;;;;4978819;28;20037;-73
2023/06/21 06:31:56;;;;;;;15.40;8.30;;;20.00;99.90;;;;;;5000754;28;20399;-73
2023/06/21 06:34:22;;;;;;;16.45;8.27;;;20.10;99.90;;;;;;4997004;28;20029;-72
2023/06/21 06:36:48;;;;;;;13.45;8.43;;;20.10;99.90;;;;;;4998664;28;20085;-73
2023/06/21 06:39:13;;;;;;;12.88;7.32;;;20.20;99.90;;;;;;4978753;28;20039;-73
2023/06/21 06:41:40;;;;;;;14.20;7.93;;;20.20;99.90;;;;;;4996647;28;20113;-72
2023/06/21 06:44:05;;;;;;;14.80;7.75;;;20.20;99.90;;;;;;4999390;28;20478;-72
2023/06/21 06:46:31;;;;;;;17.35;7.88;;;20.20;99.90;;;;;;4995143;28;20074;-72
2023/06/21 06:48:57;;;;;;;14.68;7.85;;;20.20;99.90;;;;;;4996468;28;20064;-72
2023/06/21 06:51:24;;;;;;;8.40;6.70;;;20.30;99.90;;;;;;4999059;28;20029;-72
2023/06/21 06:53:49;;;;;;;14.57;8.10;;;20.30;99.90;;;;;;4996150;28;20041;-72
2023/06/21 06:56:15;;;;;;;15.25;8.13;;;20.30;99.90;;;;;;4990541;28;20015;-72
2023/06/21 06:58:41;;;;;;;14.25;7.93;;;20.40;99.90;;;;;;4995065;28;20078;-73
2023/06/21 07:01:07;;;;;;;16.65;8.60;;;20.40;99.90;;;;;;4979461;28;20030;-72
2023/06/21 07:03:33;;;;;;;13.32;8.65;;;20.50;99.90;;;;;;4999338;28;20029;-72
2023/06/21 07:05:59;;;;;;;11.75;8.45;;;20.60;99.90;;;;;;5003497;28;20095;-72
2023/06/21 07:08:25;;;;;;;14.15;7.90;;;20.70;99.90;;;;;;4999424;28;20032;-72
2023/06/21 07:10:51;;;;;;;13.50;8.18;;;20.90;99.90;;;;;;5003140;28;20394;-72
2023/06/21 07:13:17;;;;;;;12.85;7.80;;;21.10;99.90;;;;;;4998940;28;20096;-72
2023/06/21 07:15:44;;;;;;;13.23;7.85;;;21.40;99.90;;;;;;5000078;28;20154;-72
2023/06/21 07:18:10;;;;;;;13.73;7.15;;;21.50;99.90;;;;;;5001006;28;20098;-72
2023/06/21 07:20:36;;;;;;;13.18;7.40;;;21.80;99.90;;;;;;5003332;28;20031;-72
2023/06/21 07:23:02;;;;;;;13.77;7.05;;;21.60;99.90;;;;;;5000792;28;20045;-72
2023/06/21 07:25:27;;;;;;;11.55;8.32;;;21.60;99.90;;;;;;4981861;28;20037;-72
2023/06/21 07:27:53;;;;;;;10.32;7.32;;;21.70;99.90;;;;;;5001814;28;20376;-72
2023/06/21 07:30:20;;;;;;;13.13;7.78;;;21.70;99.90;;;;;;4999362;28;20073;-72
2023/06/21 07:32:47;;;;;;;13.35;7.10;;;21.90;99.90;;;;;;5000945;28;20386;-71
2023/06/21 07:35:14;;;;;;;11.57;7.03;;;22.00;99.90;;;;;;4981724;28;20030;-71
2023/06/21 07:37:43;;;;;;;19.00;7.47;;;22.40;99.90;;;;;;4982259;28;20073;-71
2023/06/21 07:40:10;;;;;;;13.93;7.30;;;22.30;99.90;;;;;;4995340;28;20052;-71
2023/06/21 07:42:36;;;;;;;18.05;8.10;;;22.30;99.90;;;;;;5000106;28;20092;-71
2023/06/21 07:45:02;;;;;;;12.60;7.35;;;22.60;99.90;;;;;;4998156;28;20038;-71
2023/06/21 07:47:29;;;;;;;14.32;7.90;;;22.90;99.90;;;;;;4998215;28;20037;-71
2023/06/21 07:49:54;;;;;;;17.73;8.25;;;23.20;99.90;;;;;;4981254;28;20499;-71
2023/06/21 07:52:20;;;;;;;16.42;7.70;;;23.40;99.90;;;;;;4998418;28;20399;-71
2023/06/21 07:54:47;;;;;;;16.08;7.38;;;23.60;99.90;;;;;;4999006;28;20022;-71
2023/06/21 07:57:16;;;;;;;15.55;8.07;;;23.80;99.90;;;;;;4999872;28;20047;-71
2023/06/21 07:59:42;;;;;;;13.00;7.88;;;23.80;99.90;;;;;;4999429;28;20044;-71
2023/06/21 08:02:13;;;;;;;17.40;9.88;;;23.90;99.90;;;;;;4998247;28;20029;-71
2023/06/21 08:04:42;;;;;;;15.85;8.40;;;23.90;99.90;;;;;;4998719;28;20098;-71
2023/06/21 08:07:07;;;;;;;12.40;8.73;;;24.00;99.90;;;;;;5016009;28;20441;-71
2023/06/21 08:09:33;;;;;;;17.10;8.48;;;23.80;99.90;;;;;;5018956;28;20095;-71
2023/06/21 08:12:00;;;;;;;13.77;8.70;;;23.90;99.90;;;;;;5020397;28;20071;-71
2023/06/21 08:14:28;;;;;;;22.15;10.73;;;23.90;99.90;;;;;;4999675;28;20062;-71
2023/06/21 08:16:55;;;;;;;15.82;10.40;;;24.00;99.90;;;;;;5017665;28;20049;-71
2023/06/21 08:19:20;;;;;;;13.27;9.15;;;24.10;99.90;;;;;;5017893;28;20025;-71
2023/06/21 08:21:46;;;;;;;20.20;10.68;;;24.20;99.90;;;;;;5018635;28;20056;-71
2023/06/21 08:24:12;;;;;;;18.52;10.45;;;24.10;99.90;;;;;;5017582;28;20034;-71
2023/06/21 08:26:37;;;;;;;25.50;10.88;;;24.00;99.90;;;;;;5016913;28;20020;-71
2023/06/21 08:29:03;;;;;;;17.60;9.90;;;23.80;99.90;;;;;;5017581;28;20722;-71
2023/06/21 08:31:29;;;;;;;20.45;9.80;;;23.70;99.90;;;;;;5017499;28;20076;-71
2023/06/21 08:33:54;;;;;;;19.15;9.85;;;23.60;99.90;;;;;;5017935;28;20434;-71
2023/06/21 08:36:20;;;;;;;19.25;10.93;;;23.80;99.90;;;;;;5016390;28;20097;-71
2023/06/21 08:38:46;;;;;;;22.25;9.98;;;23.70;99.90;;;;;;5017494;28;20034;-71
2023/06/21 08:41:12;;;;;;;15.88;9.43;;;23.70;99.90;;;;;;4999893;28;20076;-71
2023/06/21 08:43:37;;;;;;;18.10;9.75;;;23.70;99.90;;;;;;5017290;28;20119;-71
2023/06/21 08:46:06;;;;;;;17.70;8.93;;;23.60;99.90;;;;;;5015117;28;20030;-71
2023/06/21 08:48:32;;;;;;;16.60;9.25;;;23.50;99.90;;;;;;5016933;28;20022;-71
2023/06/21 08:51:04;;;;;;;17.08;10.00;;;23.40;99.90;;;;;;5002679;28;20021;-71
2023/06/21 08:53:45;;;;;;;14.38;9.43;;;23.30;99.90;;;;;;5017477;28;20108;-71
2023/06/21 08:56:17;;;;;;;23.63;11.10;;;23.10;99.90;;;;;;5017740;28;20022;-71
2023/06/21 08:58:49;;;;;;;14.00;9.43;;;23.00;99.90;;;;;;5017791;28;20018;-71
2023/06/21 09:01:17;;;;;;;18.70;9.98;;;22.80;99.90;;;;;;4999732;28;20046;-71
2023/06/21 09:03:58;;;;;;;17.52;9.18;;;22.70;99.90;;;;;;5018338;28;20028;-71
2023/06/21 09:06:25;;;;;;;15.38;9.25;;;22.70;99.90;;;;;;5012229;28;20117;-71
2023/06/21 09:08:54;;;;;;;21.02;9.93;;;22.70;99.90;;;;;;5018120;28;20109;-72
2023/06/21 09:11:23;;;;;;;16.83;9.65;;;22.80;99.90;;;;;;5016755;28;20191;-71
2023/06/21 09:13:50;;;;;;;15.93;9.30;;;22.90;99.90;;;;;;5017060;28;20026;-71
2023/06/21 09:16:17;;;;;;;19.67;10.13;;;22.80;99.90;;;;;;4998410;28;20022;-71
2023/06/21 09:18:43;;;;;;;20.27;10.75;;;22.80;99.90;;;;;;5016445;28;20509;-71
2023/06/21 09:21:11;;;;;;;17.02;9.07;;;22.70;99.90;;;;;;5000050;28;20057;-71
2023/06/21 09:23:39;;;;;;;15.95;10.20;;;22.70;99.90;;;;;;5020772;28;20032;-71
2023/06/21 09:26:05;;;;;;;17.45;11.02;;;22.80;99.90;;;;;;5008809;28;20034;-71
2023/06/21 09:28:31;;;;;;;19.60;11.10;;;22.70;99.90;;;;;;5016550;28;20092;-71
2023/06/21 09:30:58;;;;;;;18.30;10.23;;;22.80;99.90;;;;;;5017086;28;20475;-71
2023/06/21 09:33:25;;;;;;;17.17;9.40;;;22.80;99.90;;;;;;5019413;28;20718;-71
2023/06/21 09:35:50;;;;;;;18.75;10.23;;;22.80;99.90;;;;;;4995969;28;20049;-71
2023/06/21 09:38:38;;;;;;;16.73;9.15;;;22.80;99.90;;;;;;5016861;28;20061;-72
2023/06/21 09:41:06;;;;;;;16.23;10.25;;;22.70;99.90;;;;;;5016419;28;20029;-72
2023/06/21 09:43:32;;;;;;;19.38;9.32;;;22.70;99.90;;;;;;5016893;28;20029;-72
2023/06/21 09:46:05;;;;;;;27.55;11.25;;;22.50;99.90;;;;;;5000505;28;20023;-72
2023/06/21 09:48:35;;;;;;;18.15;9.75;;;22.60;99.90;;;;;;5013591;28;20034;-71
2023/06/21 09:51:06;;;;;;;22.27;9.77;;;22.60;99.90;;;;;;4995570;28;20018;-72
2023/06/21 09:53:31;;;;;;;15.40;9.50;;;22.60;99.90;;;;;;4998418;28;20033;-72
2023/06/21 09:56:00;;;;;;;17.52;9.68;;;22.60;99.90;;;;;;5015698;28;20112;-72
2023/06/21 09:58:25;;;;;;;16.13;8.93;;;22.60;99.90;;;;;;5016109;28;20479;-72
2023/06/21 10:00:51;;;;;;;20.25;10.25;;;22.70;99.90;;;;;;5014762;28;20049;-72
2023/06/21 10:03:22;;;;;;;18.35;10.32;;;22.60;99.90;;;;;;5016492;28;20030;-72
2023/06/21 10:05:59;;;;;;;18.23;10.30;;;22.60;99.90;;;;;;5001822;28;20046;-72
2023/06/21 10:08:26;;;;;;;24.55;11.20;;;22.60;99.90;;;;;;5012372;28;20033;-72
2023/06/21 10:10:52;;;;;;;18.85;10.05;;;22.50;99.90;;;;;;5015920;28;20367;-72
2023/06/21 10:13:27;;;;;;;22.42;10.05;;;22.50;99.90;;;;;;5019373;28;20410;-72
2023/06/21 10:15:56;;;;;;;20.85;10.52;;;22.50;99.90;;;;;;5014940;28;20563;-72
2023/06/21 10:18:23;;;;;;;17.15;10.27;;;22.30;99.90;;;;;;5018317;28;20150;-72
2023/06/21 10:20:55;;;;;;;17.55;10.48;;;22.30;99.90;;;;;;4995872;28;20034;-75
2023/06/21 10:23:22;;;;;;;18.17;10.55;;;22.20;99.90;;;;;;5015174;28;20080;-73
2023/06/21 10:25:50;;;;;;;19.52;10.60;;;22.20;99.90;;;;;;5013235;28;20037;-73
2023/06/21 10:28:18;;;;;;;18.42;11.27;;;22.30;99.90;;;;;;5015834;28;20466;-74
2023/06/21 10:30:45;;;;;;;22.95;10.73;;;22.40;99.90;;;;;;5015583;28;20026;-73
2023/06/21 10:33:15;;;;;;;16.52;10.85;;;22.50;99.90;;;;;;5019272;28;20056;-73
2023/06/21 10:35:45;;;;;;;22.02;10.77;;;22.60;99.90;;;;;;4995752;28;20065;-72
2023/06/21 10:38:35;;;;;;;16.10;10.30;;;22.80;99.90;;;;;;5019314;28;20057;-72
2023/06/21 10:41:03;;;;;;;16.08;9.98;;;23.20;99.90;;;;;;5021902;28;20033;-72
2023/06/21 10:43:30;;;;;;;14.75;10.10;;;23.30;99.90;;;;;;5020739;28;20034;-72
2023/06/21 10:45:57;;;;;;;17.90;9.65;;;23.60;99.90;;;;;;5020183;28;20456;-72
2023/06/21 10:48:25;;;;;;;17.63;9.40;;;23.90;99.90;;;;;;5019401;28;20022;-72
2023/06/21 10:50:51;;;;;;;14.27;8.63;;;24.00;99.90;;;;;;5020568;28;20401;-70
2023/06/21 10:53:19;;;;;;;15.25;9.60;;;24.20;99.90;;;;;;4985601;28;20022;-71
2023/06/21 10:55:46;;;;;;;20.23;9.65;;;24.50;99.90;;;;;;5019305;28;20033;-71
2023/06/21 10:58:13;;;;;;;19.27;9.23;;;24.60;99.90;;;;;;5001474;28;20033;-71
2023/06/21 11:00:43;;;;;;;11.82;7.40;;;24.60;99.90;;;;;;5019061;28;20025;-71
2023/06/21 11:03:12;;;;;;;16.85;9.40;;;24.90;99.90;;;;;;5012507;28;20044;-71
2023/06/21 11:05:39;;;;;;;16.23;8.70;;;24.90;99.90;;;;;;5009032;28;20081;-71
2023/06/21 11:08:06;;;;;;;15.52;7.63;;;25.10;99.90;;;;;;4998175;28;20273;-71
2023/06/21 11:10:50;;;;;;;15.93;7.38;;;25.10;99.90;;;;;;5000612;28;20026;-71
2023/06/21 11:13:17;;;;;;;15.55;8.10;;;25.00;99.90;;;;;;5000122;28;20022;-71
2023/06/21 11:15:46;;;;;;;17.67;7.45;;;25.00;99.90;;;;;;4983904;28;20074;-72
2023/06/21 11:18:19;;;;;;;14.13;6.93;;;25.30;99.90;;;;;;5000051;28;20603;-71
2023/06/21 11:20:56;;;;;;;13.63;7.50;;;25.60;99.90;;;;;;5002163;28;20081;-72
2023/06/21 11:23:23;;;;;;;12.23;7.30;;;25.60;99.90;;;;;;5001827;28;20581;-72
2023/06/21 11:26:13;;;;;;;13.10;7.00;;;25.70;99.90;;;;;;4998335;28;20045;-71
2023/06/21 11:28:44;;;;;;;14.93;7.68;;;25.50;99.90;;;;;;4973256;28;20025;-71
2023/06/21 11:31:17;;;;;;;17.45;7.80;;;25.20;99.90;;;;;;4989943;28;20030;-71
2023/06/21 11:33:55;;;;;;;15.38;7.97;;;25.00;99.90;;;;;;4997487;28;20099;-71
2023/06/21 11:36:31;;;;;;;15.10;7.10;;;24.80;99.90;;;;;;4997945;28;20042;-71
2023/06/21 11:39:10;;;;;;;15.40;7.47;;;24.80;99.90;;;;;;4998911;28;20021;-71
2023/06/21 11:41:57;;;;;;;16.33;6.40;;;24.80;99.90;;;;;;4994747;28;20101;-71
2023/06/21 11:44:30;;;;;;;12.35;7.10;;;24.80;99.90;;;;;;4998196;28;20019;-71
2023/06/21 11:47:04;;;;;;;19.48;7.55;;;24.80;99.90;;;;;;4998645;28;20414;-71
2023/06/21 11:49:33;;;;;;;13.52;7.85;;;24.80;99.90;;;;;;4980497;28;20459;-71
2023/06/21 11:52:04;;;;;;;14.90;7.05;;;24.60;99.90;;;;;;4998408;28;20027;-71
2023/06/21 11:54:31;;;;;;;21.75;7.82;;;24.60;99.90;;;;;;5001602;28;20034;-71
2023/06/21 11:56:57;;;;;;;14.77;8.25;;;24.70;99.90;;;;;;4982493;28;20034;-71
2023/06/21 11:59:25;;;;;;;17.42;6.82;;;24.80;99.90;;;;;;4998023;28;20026;-71
2023/06/21 12:01:51;;;;;;;16.10;7.22;;;25.10;99.90;;;;;;4998857;28;20030;-71
2023/06/21 12:04:29;;;;;;;17.90;7.82;;;25.40;99.90;;;;;;4998129;28;20022;-71
2023/06/21 12:06:55;;;;;;;16.15;7.47;;;25.90;99.90;;;;;;5001163;28;20046;-71
2023/06/21 12:09:21;;;;;;;19.77;7.55;;;26.10;99.90;;;;;;4998441;28;20019;-70
2023/06/21 12:11:48;;;;;;;15.95;6.70;;;26.40;99.90;;;;;;4996078;28;20049;-71
2023/06/21 12:14:15;;;;;;;13.85;6.85;;;26.60;99.90;;;;;;4997870;28;20446;-70
2023/06/21 12:16:41;;;;;;;11.43;6.53;;;26.70;99.90;;;;;;4996629;28;20022;-70
2023/06/21 12:19:09;;;;;;;11.48;6.18;;;26.90;99.90;;;;;;4992226;28;20103;-71
2023/06/21 12:21:35;;;;;;;12.57;6.53;;;27.20;99.90;;;;;;4995763;28;20479;-71
2023/06/21 12:24:01;;;;;;;16.70;7.25;;;27.20;99.90;;;;;;4999288;28;20080;-71
2023/06/21 12:26:27;;;;;;;15.00;6.85;;;27.50;99.90;;;;;;4999903;28;20101;-71
2023/06/21 12:28:53;;;;;;;15.10;6.93;;;27.70;99.90;;;;;;4987868;28;20096;-70
2023/06/21 12:31:20;;;;;;;13.25;7.07;;;27.50;99.90;;;;;;4998897;28;20231;-70
2023/06/21 12:33:53;;;;;;;15.05;6.00;;;27.40;99.90;;;;;;4998944;28;20483;-70
2023/06/21 12:36:25;;;;;;;22.73;7.30;;;26.90;99.90;;;;;;4998766;28;20034;-70
2023/06/21 12:38:59;;;;;;;15.00;6.18;;;26.90;99.90;;;;;;4991017;28;20024;-71
2023/06/21 12:41:32;;;;;;;13.48;6.30;;;27.00;99.90;;;;;;4998860;28;20081;-70